createdAt,value
2023-04-25T00:00:07.886Z,13.01
2023-04-25T00:01:06.079Z,13.25
2023-04-25T00:02:04.388Z,13.24
2023-04-25T00:03:01.391Z,13.17
2023-04-25T00:03:58.653Z,13.13
2023-04-25T00:04:59.366Z,13.14
2023-04-25T00:05:57.940Z,12.87
2023-04-25T00:06:55.491Z,13.04
2023-04-25T00:07:52.530Z,12.93
2023-04-25T00:08:49.814Z,13.10
2023-04-25T00:09:46.809Z,12.59
2023-04-25T00:10:43.566Z,13.01
2023-04-25T00:11:41.709Z,13.09
2023-04-25T00:12:39.957Z,13.09
2023-04-25T00:13:36.726Z,13.17
2023-04-25T00:14:36.568Z,13.08
2023-04-25T00:15:33.372Z,12.63
2023-04-25T00:16:34.423Z,12.34
2023-04-25T00:17:32.432Z,12.49
2023-04-25T00:18:30.228Z,12.59
2023-04-25T00:19:29.289Z,12.45
2023-04-25T00:20:26.137Z,13.01
2023-04-25T00:21:25.437Z,12.91
2023-04-25T00:22:22.448Z,12.53
2023-04-25T00:23:19.454Z,12.42
2023-04-25T00:24:16.356Z,12.21
2023-04-25T00:25:13.302Z,12.11
2023-04-25T00:26:10.133Z,12.02
2023-04-25T00:27:06.856Z,12.07
2023-04-25T00:28:03.780Z,12.02
2023-04-25T00:29:00.537Z,12.35
2023-04-25T00:29:57.371Z,12.42
2023-04-25T00:30:54.232Z,12.32
2023-04-25T00:31:51.023Z,12.13
2023-04-25T00:32:47.921Z,12.29
2023-04-25T00:33:44.740Z,12.18
2023-04-25T00:34:41.521Z,12.65
2023-04-25T00:35:39.333Z,12.66
2023-04-25T00:36:36.321Z,12.60
2023-04-25T00:37:33.038Z,12.36
2023-04-25T00:38:29.780Z,12.59
2023-04-25T00:39:26.566Z,12.50
2023-04-25T00:40:23.637Z,12.68
2023-04-25T00:41:20.901Z,12.81
2023-04-25T00:42:17.757Z,12.72
2023-04-25T00:43:14.563Z,12.52
2023-04-25T00:44:12.931Z,12.43
2023-04-25T00:45:15.595Z,12.69
2023-04-25T00:46:12.317Z,12.29
2023-04-25T00:47:09.399Z,12.68
2023-04-25T00:48:06.504Z,12.55
2023-04-25T00:49:03.409Z,12.22
2023-04-25T00:50:00.254Z,12.44
2023-04-25T00:51:00.935Z,12.30
2023-04-25T00:51:57.919Z,12.56
2023-04-25T00:52:55.284Z,12.07
2023-04-25T00:53:52.838Z,12.38
2023-04-25T00:54:49.996Z,12.48
2023-04-25T00:55:46.867Z,12.41
2023-04-25T00:56:46.189Z,12.58
2023-04-25T00:57:43.784Z,12.49
2023-04-25T00:58:42.460Z,12.55
2023-04-25T00:59:39.842Z,12.69
2023-04-25T01:00:37.789Z,12.46
2023-04-25T01:01:34.788Z,12.72
2023-04-25T01:02:32.867Z,12.69
2023-04-25T01:03:34.389Z,11.95
2023-04-25T01:04:31.557Z,12.58
2023-04-25T01:05:28.298Z,12.36
2023-04-25T01:06:25.592Z,12.70
2023-04-25T01:07:22.391Z,12.58
2023-04-25T01:08:19.258Z,12.51
2023-04-25T01:09:16.039Z,12.32
2023-04-25T01:10:12.776Z,11.99
2023-04-25T01:11:10.066Z,12.01
2023-04-25T01:12:07.050Z,11.94
2023-04-25T01:13:04.452Z,11.96
2023-04-25T01:14:02.918Z,12.39
2023-04-25T01:14:59.855Z,12.35
2023-04-25T01:15:56.623Z,12.16
2023-04-25T01:16:54.184Z,11.95
2023-04-25T01:17:51.191Z,12.03
2023-04-25T01:18:49.147Z,12.13
2023-04-25T01:19:48.696Z,12.06
2023-04-25T01:20:47.520Z,12.17
2023-04-25T01:21:44.851Z,12.30
2023-04-25T01:22:41.711Z,12.29
2023-04-25T01:23:42.265Z,12.33
2023-04-25T01:24:39.702Z,12.46
2023-04-25T01:25:37.801Z,12.39
2023-04-25T01:26:36.450Z,12.19
2023-04-25T01:27:33.797Z,12.19
2023-04-25T01:28:31.156Z,11.94
2023-04-25T01:29:29.255Z,12.32
2023-04-25T01:30:29.799Z,12.10
2023-04-25T01:31:28.619Z,11.88
2023-04-25T01:32:25.606Z,12.13
2023-04-25T01:33:23.239Z,11.24
2023-04-25T01:34:20.623Z,11.68
2023-04-25T01:35:17.498Z,11.96
2023-04-25T01:36:15.643Z,11.83
2023-04-25T01:37:12.425Z,11.82
2023-04-25T01:38:09.782Z,11.48
2023-04-25T01:39:06.559Z,11.57
2023-04-25T01:40:04.498Z,11.56
2023-04-25T01:41:01.419Z,11.80
2023-04-25T01:41:58.239Z,11.64
2023-04-25T01:42:55.913Z,11.62
2023-04-25T01:43:53.087Z,11.57
2023-04-25T01:44:50.157Z,11.37
2023-04-25T01:45:47.626Z,11.25
2023-04-25T01:46:44.477Z,11.13
2023-04-25T01:47:42.576Z,11.01
2023-04-25T01:48:39.461Z,11.18
2023-04-25T01:49:36.223Z,11.04
2023-04-25T01:50:32.964Z,11.45
2023-04-25T01:51:29.874Z,11.52
2023-04-25T01:52:26.648Z,11.48
2023-04-25T01:53:23.784Z,11.63
2023-04-25T01:54:21.301Z,11.36
2023-04-25T01:55:18.104Z,11.74
2023-04-25T01:56:14.865Z,11.48
2023-04-25T01:57:12.616Z,11.74
2023-04-25T01:58:13.998Z,11.67
2023-04-25T01:59:10.842Z,11.54
2023-04-25T02:00:10.188Z,11.64
2023-04-25T02:01:06.980Z,11.81
2023-04-25T02:02:06.516Z,11.84
2023-04-25T02:03:03.493Z,11.78
2023-04-25T02:04:00.647Z,11.76
2023-04-25T02:04:57.644Z,11.94
2023-04-25T02:05:54.375Z,11.72
2023-04-25T02:06:51.130Z,11.71
2023-04-25T02:07:49.108Z,11.96
2023-04-25T02:08:45.826Z,11.80
2023-04-25T02:09:42.538Z,12.33
2023-04-25T02:10:39.443Z,12.32
2023-04-25T02:11:36.493Z,12.16
2023-04-25T02:12:33.309Z,11.99
2023-04-25T02:13:30.189Z,11.95
2023-04-25T02:14:26.946Z,12.22
2023-04-25T02:15:23.658Z,12.35
2023-04-25T02:16:20.663Z,12.42
2023-04-25T02:17:17.464Z,11.96
2023-04-25T02:18:14.330Z,12.26
2023-04-25T02:19:11.811Z,12.25
2023-04-25T02:20:09.204Z,12.19
2023-04-25T02:21:05.922Z,11.99
2023-04-25T02:22:03.395Z,11.72
2023-04-25T02:23:00.247Z,11.69
2023-04-25T02:23:57.369Z,11.63
2023-04-25T02:24:55.231Z,11.85
2023-04-25T02:25:53.397Z,11.37
2023-04-25T02:26:50.724Z,12.26
2023-04-25T02:27:50.388Z,12.31
2023-04-25T02:28:47.147Z,12.29
2023-04-25T02:29:43.970Z,12.11
2023-04-25T02:30:41.040Z,12.17
2023-04-25T02:31:37.753Z,12.30
2023-04-25T02:32:35.344Z,12.37
2023-04-25T02:33:32.223Z,11.73
2023-04-25T02:34:28.989Z,11.71
2023-04-25T02:35:25.934Z,11.68
2023-04-25T02:36:22.747Z,11.78
2023-04-25T02:37:19.595Z,11.18
2023-04-25T02:38:16.358Z,11.79
2023-04-25T02:39:13.097Z,11.83
2023-04-25T02:40:10.326Z,11.94
2023-04-25T02:41:07.223Z,12.02
2023-04-25T02:42:04.054Z,11.94
2023-04-25T02:43:00.824Z,11.78
2023-04-25T02:43:57.519Z,12.17
2023-04-25T02:44:54.354Z,12.20
2023-04-25T02:45:51.155Z,12.18
2023-04-25T02:46:48.042Z,11.97
2023-04-25T02:47:44.874Z,12.12
2023-04-25T02:48:41.610Z,12.18
2023-04-25T02:49:38.298Z,12.20
2023-04-25T02:50:35.020Z,12.27
2023-04-25T02:51:32.060Z,12.20
2023-04-25T02:52:28.897Z,12.04
2023-04-25T02:53:25.649Z,12.07
2023-04-25T02:54:22.426Z,11.94
2023-04-25T02:55:19.280Z,12.01
2023-04-25T02:56:16.033Z,11.48
2023-04-25T02:57:12.815Z,9.33
2023-04-25T02:58:09.525Z,11.90
2023-04-25T02:59:06.391Z,11.73
2023-04-25T03:00:05.759Z,12.08
2023-04-25T03:01:02.521Z,11.90
2023-04-25T03:01:59.265Z,12.05
2023-04-25T03:02:56.676Z,12.12
2023-04-25T03:03:53.814Z,11.98
2023-04-25T03:04:51.203Z,11.76
2023-04-25T03:05:48.921Z,12.15
2023-04-25T03:06:45.690Z,12.30
2023-04-25T03:07:44.639Z,12.10
2023-04-25T03:08:41.482Z,11.96
2023-04-25T03:09:38.216Z,11.77
2023-04-25T03:10:35.041Z,11.58
2023-04-25T03:11:31.766Z,11.85
2023-04-25T03:12:28.572Z,11.69
2023-04-25T03:13:25.796Z,11.89
2023-04-25T03:14:22.829Z,11.63
2023-04-25T03:15:19.746Z,11.92
2023-04-25T03:16:16.772Z,11.93
2023-04-25T03:17:13.644Z,11.65
2023-04-25T03:18:10.404Z,11.86
2023-04-25T03:19:07.332Z,12.09
2023-04-25T03:20:05.244Z,12.11
2023-04-25T03:21:02.164Z,12.24
2023-04-25T03:21:58.966Z,12.32
2023-04-25T03:22:55.800Z,12.32
2023-04-25T03:23:52.836Z,12.10
2023-04-25T03:24:49.801Z,12.11
2023-04-25T03:25:46.614Z,11.97
2023-04-25T03:26:43.428Z,11.91
2023-04-25T03:27:40.325Z,11.45
2023-04-25T03:28:37.089Z,12.22
2023-04-25T03:29:33.996Z,12.06
2023-04-25T03:30:30.839Z,12.12
2023-04-25T03:31:27.631Z,11.96
2023-04-25T03:32:24.448Z,11.89
2023-04-25T03:33:21.292Z,11.66
2023-04-25T03:34:18.069Z,11.49
2023-04-25T03:35:14.764Z,11.45
2023-04-25T03:36:11.533Z,11.61
2023-04-25T03:37:08.371Z,11.49
2023-04-25T03:38:05.145Z,11.75
2023-04-25T03:39:01.949Z,11.87
2023-04-25T03:39:58.759Z,11.88
2023-04-25T03:40:57.168Z,11.80
2023-04-25T03:41:53.956Z,11.91
2023-04-25T03:42:51.199Z,12.08
2023-04-25T03:43:48.239Z,12.19
2023-04-25T03:44:45.350Z,12.28
2023-04-25T03:45:42.143Z,12.01
2023-04-25T03:46:38.894Z,11.82
2023-04-25T03:47:35.680Z,11.08
2023-04-25T03:48:32.417Z,11.77
2023-04-25T03:49:29.237Z,11.96
2023-04-25T03:50:26.037Z,11.86
2023-04-25T03:51:22.857Z,11.59
2023-04-25T03:52:19.581Z,12.23
2023-04-25T03:53:16.262Z,11.63
2023-04-25T03:54:13.057Z,12.04
2023-04-25T03:55:10.346Z,11.98
2023-04-25T03:56:07.450Z,12.02
2023-04-25T03:57:04.187Z,12.02
2023-04-25T03:58:01.000Z,12.03
2023-04-25T03:58:57.796Z,11.98
2023-04-25T03:59:54.602Z,12.08
2023-04-25T04:00:51.359Z,12.12
2023-04-25T04:01:48.181Z,12.43
2023-04-25T04:02:45.698Z,12.32
2023-04-25T04:03:42.913Z,12.43
2023-04-25T04:04:40.224Z,12.23
2023-04-25T04:05:38.263Z,12.31
2023-04-25T04:06:35.068Z,12.09
2023-04-25T04:07:33.895Z,12.15
2023-04-25T04:08:31.185Z,12.06
2023-04-25T04:09:28.619Z,11.77
2023-04-25T04:10:25.436Z,12.13
2023-04-25T04:11:22.159Z,12.42
2023-04-25T04:12:18.913Z,12.13
2023-04-25T04:13:15.792Z,12.04
2023-04-25T04:14:12.669Z,12.20
2023-04-25T04:15:10.845Z,12.45
2023-04-25T04:16:07.845Z,12.46
2023-04-25T04:17:04.699Z,12.14
2023-04-25T04:18:04.240Z,12.39
2023-04-25T04:19:01.049Z,12.72
2023-04-25T04:19:57.872Z,12.47
2023-04-25T04:20:54.716Z,12.74
2023-04-25T04:21:51.457Z,12.83
2023-04-25T04:22:48.215Z,12.53
2023-04-25T04:23:44.973Z,12.08
2023-04-25T04:24:44.949Z,12.47
2023-04-25T04:25:42.866Z,12.64
2023-04-25T04:26:39.819Z,12.69
2023-04-25T04:27:36.550Z,12.79
2023-04-25T04:28:33.242Z,12.94
2023-04-25T04:29:29.991Z,13.03
2023-04-25T04:30:26.871Z,12.86
2023-04-25T04:31:24.904Z,12.88
2023-04-25T04:32:21.806Z,12.93
2023-04-25T04:33:20.550Z,12.87
2023-04-25T04:34:20.088Z,12.87
2023-04-25T04:35:17.018Z,12.99
2023-04-25T04:36:14.346Z,12.86
2023-04-25T04:37:11.190Z,12.66
2023-04-25T04:38:08.024Z,12.74
2023-04-25T04:39:06.854Z,12.66
2023-04-25T04:40:06.228Z,12.45
2023-04-25T04:41:04.363Z,12.55
2023-04-25T04:42:02.886Z,12.62
2023-04-25T04:42:59.577Z,12.82
2023-04-25T04:43:57.028Z,12.83
2023-04-25T04:44:55.986Z,12.73
2023-04-25T04:45:53.377Z,12.43
2023-04-25T04:46:50.137Z,12.75
2023-04-25T04:47:47.294Z,12.72
2023-04-25T04:48:45.599Z,11.85
2023-04-25T04:49:42.451Z,12.69
2023-04-25T04:50:39.945Z,12.86
2023-04-25T04:51:37.737Z,12.45
2023-04-25T04:52:34.592Z,12.68
2023-04-25T04:53:31.371Z,12.87
2023-04-25T04:54:28.186Z,12.43
2023-04-25T04:55:25.071Z,12.58
2023-04-25T04:56:24.721Z,12.31
2023-04-25T04:57:21.495Z,12.39
2023-04-25T04:58:19.219Z,12.48
2023-04-25T04:59:16.036Z,12.66
2023-04-25T05:00:13.290Z,12.50
2023-04-25T05:01:10.107Z,12.39
2023-04-25T05:02:06.908Z,12.64
2023-04-25T05:03:03.946Z,12.74
2023-04-25T05:04:02.134Z,12.63
2023-04-25T05:04:59.306Z,12.34
2023-04-25T05:05:56.272Z,12.68
2023-04-25T05:06:53.045Z,12.67
2023-04-25T05:07:49.726Z,12.86
2023-04-25T05:08:46.567Z,12.93
2023-04-25T05:09:43.382Z,12.53
2023-04-25T05:10:40.152Z,12.45
2023-04-25T05:11:36.907Z,12.90
2023-04-25T05:12:34.663Z,12.99
2023-04-25T05:13:32.566Z,12.47
2023-04-25T05:14:29.653Z,12.76
2023-04-25T05:15:26.370Z,12.67
2023-04-25T05:16:24.363Z,12.30
2023-04-25T05:17:21.181Z,12.60
2023-04-25T05:18:17.903Z,12.55
2023-04-25T05:19:14.871Z,12.36
2023-04-25T05:20:11.920Z,12.48
2023-04-25T05:21:08.717Z,12.51
2023-04-25T05:22:05.516Z,12.56
2023-04-25T05:23:02.309Z,12.48
2023-04-25T05:23:59.095Z,12.75
2023-04-25T05:24:56.176Z,12.84
2023-04-25T05:25:53.031Z,12.75
2023-04-25T05:26:49.782Z,12.82
2023-04-25T05:27:46.952Z,12.71
2023-04-25T05:28:43.780Z,12.65
2023-04-25T05:29:40.658Z,12.53
2023-04-25T05:30:37.449Z,12.79
2023-04-25T05:31:34.846Z,12.72
2023-04-25T05:32:31.683Z,12.45
2023-04-25T05:33:28.468Z,12.75
2023-04-25T05:34:25.443Z,12.88
2023-04-25T05:35:22.255Z,13.14
2023-04-25T05:36:22.273Z,13.08
2023-04-25T05:37:19.026Z,13.30
2023-04-25T05:38:15.792Z,13.09
2023-04-25T05:39:12.613Z,13.23
2023-04-25T05:40:10.109Z,13.14
2023-04-25T05:41:06.929Z,13.17
2023-04-25T05:42:04.919Z,13.16
2023-04-25T05:43:01.933Z,13.37
2023-04-25T05:43:58.954Z,13.36
2023-04-25T05:44:56.164Z,13.19
2023-04-25T05:45:53.109Z,13.24
2023-04-25T05:46:50.034Z,13.06
2023-04-25T05:47:46.808Z,13.18
2023-04-25T05:48:43.767Z,12.62
2023-04-25T05:49:40.478Z,12.94
2023-04-25T05:50:37.219Z,12.97
2023-04-25T05:51:33.996Z,12.34
2023-04-25T05:52:30.789Z,13.08
2023-04-25T05:53:30.655Z,13.29
2023-04-25T05:54:27.405Z,13.41
2023-04-25T05:55:24.125Z,13.29
2023-04-25T05:56:20.926Z,13.35
2023-04-25T05:57:25.356Z,13.25
2023-04-25T05:58:22.215Z,13.12
2023-04-25T05:59:19.054Z,12.88
2023-04-25T06:00:16.975Z,13.21
2023-04-25T06:01:13.741Z,13.42
2023-04-25T06:02:10.564Z,13.54
2023-04-25T06:03:10.785Z,13.40
2023-04-25T06:04:08.060Z,13.30
2023-04-25T06:05:05.719Z,13.33
2023-04-25T06:06:02.860Z,12.93
2023-04-25T06:06:59.837Z,13.07
2023-04-25T06:07:56.800Z,13.16
2023-04-25T06:08:53.603Z,13.12
2023-04-25T06:09:50.328Z,13.14
2023-04-25T06:10:47.063Z,13.43
2023-04-25T06:11:43.851Z,12.86
2023-04-25T06:12:40.590Z,13.20
2023-04-25T06:13:37.257Z,13.19
2023-04-25T06:14:35.136Z,13.18
2023-04-25T06:15:33.508Z,13.35
2023-04-25T06:16:30.351Z,13.55
2023-04-25T06:17:45.790Z,13.31
2023-04-25T06:18:42.551Z,13.02
2023-04-25T06:19:39.369Z,12.69
2023-04-25T06:20:36.145Z,12.75
2023-04-25T06:21:32.933Z,12.87
2023-04-25T06:22:29.671Z,13.28
2023-04-25T06:23:26.446Z,13.51
2023-04-25T06:24:23.214Z,13.77
2023-04-25T06:25:20.299Z,14.08
2023-04-25T06:26:17.018Z,14.16
2023-04-25T06:27:15.145Z,14.14
2023-04-25T06:28:13.327Z,14.54
2023-04-25T06:29:10.283Z,14.17
2023-04-25T06:30:07.836Z,13.88
2023-04-25T06:31:04.784Z,14.22
2023-04-25T06:32:01.550Z,14.46
2023-04-25T06:32:58.335Z,14.30
2023-04-25T06:33:55.844Z,13.90
2023-04-25T06:34:52.617Z,14.54
2023-04-25T06:35:49.414Z,14.37
2023-04-25T06:36:46.239Z,14.31
2023-04-25T06:37:43.551Z,14.67
2023-04-25T06:38:40.339Z,14.50
2023-04-25T06:39:41.254Z,14.56
2023-04-25T06:40:38.264Z,13.95
2023-04-25T06:41:34.961Z,14.13
2023-04-25T06:42:31.675Z,14.87
2023-04-25T06:43:28.493Z,14.95
2023-04-25T06:44:27.193Z,15.06
2023-04-25T06:45:23.951Z,15.01
2023-04-25T06:46:20.917Z,15.00
2023-04-25T06:47:17.759Z,14.77
2023-04-25T06:48:14.455Z,14.82
2023-04-25T06:49:11.129Z,14.83
2023-04-25T06:50:08.362Z,15.18
2023-04-25T06:51:05.425Z,15.11
2023-04-25T06:52:02.257Z,14.83
2023-04-25T06:52:59.012Z,15.19
2023-04-25T06:53:55.843Z,14.74
2023-04-25T06:54:52.623Z,15.18
2023-04-25T06:55:49.433Z,15.10
2023-04-25T06:56:46.183Z,15.12
2023-04-25T06:57:43.005Z,14.78
2023-04-25T06:58:39.738Z,14.51
2023-04-25T06:59:36.576Z,14.65
2023-04-25T07:00:34.554Z,14.59
2023-04-25T07:01:31.871Z,14.95
2023-04-25T07:02:28.669Z,14.80
2023-04-25T07:03:25.710Z,14.84
2023-04-25T07:04:25.321Z,14.86
2023-04-25T07:05:22.379Z,14.69
2023-04-25T07:06:19.174Z,14.63
2023-04-25T07:07:16.095Z,14.81
2023-04-25T07:08:13.154Z,15.02
2023-04-25T07:09:14.057Z,14.66
2023-04-25T07:10:10.998Z,14.55
2023-04-25T07:11:07.799Z,14.80
2023-04-25T07:12:04.861Z,14.72
2023-04-25T07:13:01.993Z,14.62
2023-04-25T07:13:58.761Z,14.36
2023-04-25T07:14:55.490Z,14.75
2023-04-25T07:15:52.287Z,14.77
2023-04-25T07:16:49.249Z,14.83
2023-04-25T07:17:46.312Z,14.89
2023-04-25T07:18:43.133Z,14.92
2023-04-25T07:19:40.960Z,14.91
2023-04-25T07:20:40.932Z,15.01
2023-04-25T07:21:37.711Z,14.83
2023-04-25T07:22:34.531Z,14.44
2023-04-25T07:23:31.275Z,14.44
2023-04-25T07:24:27.977Z,14.55
2023-04-25T07:25:24.896Z,14.66
2023-04-25T07:26:21.758Z,14.55
2023-04-25T07:27:18.473Z,15.20
2023-04-25T07:28:15.827Z,15.35
2023-04-25T07:29:13.859Z,15.38
2023-04-25T07:30:11.030Z,15.43
2023-04-25T07:31:07.733Z,15.61
2023-04-25T07:32:04.922Z,15.50
2023-04-25T07:33:01.841Z,15.71
2023-04-25T07:33:59.930Z,15.56
2023-04-25T07:34:58.576Z,15.32
2023-04-25T07:35:56.882Z,15.55
2023-04-25T07:36:53.730Z,15.43
2023-04-25T07:37:50.522Z,15.50
2023-04-25T07:38:47.375Z,15.53
2023-04-25T07:39:44.176Z,15.62
2023-04-25T07:40:40.924Z,15.72
2023-04-25T07:41:37.683Z,14.96
2023-04-25T07:42:34.554Z,15.57
2023-04-25T07:43:31.322Z,15.60
2023-04-25T07:44:28.127Z,15.74
2023-04-25T07:45:25.395Z,16.10
2023-04-25T07:46:22.265Z,15.85
2023-04-25T07:47:20.390Z,16.18
2023-04-25T07:48:20.519Z,16.23
2023-04-25T07:49:17.280Z,15.79
2023-04-25T07:50:14.045Z,16.35
2023-04-25T07:51:10.887Z,16.33
2023-04-25T07:52:07.661Z,16.39
2023-04-25T07:53:04.958Z,16.05
2023-04-25T07:54:02.041Z,16.30
2023-04-25T07:54:59.650Z,16.21
2023-04-25T07:55:56.451Z,16.14
2023-04-25T07:56:53.768Z,15.91
2023-04-25T07:57:50.752Z,16.17
2023-04-25T07:58:47.572Z,16.04
2023-04-25T07:59:44.603Z,15.88
2023-04-25T08:00:42.640Z,16.38
2023-04-25T08:01:39.420Z,16.48
2023-04-25T08:02:37.521Z,16.31
2023-04-25T08:03:34.603Z,15.78
2023-04-25T08:04:31.736Z,15.89
2023-04-25T08:05:28.948Z,16.31
2023-04-25T08:06:26.690Z,16.47
2023-04-25T08:07:23.647Z,16.45
2023-04-25T08:08:20.847Z,16.60
2023-04-25T08:09:17.805Z,16.09
2023-04-25T08:10:14.670Z,16.32
2023-04-25T08:11:11.713Z,16.12
2023-04-25T08:12:08.837Z,15.75
2023-04-25T08:13:06.527Z,15.71
2023-04-25T08:14:03.813Z,16.04
2023-04-25T08:15:00.739Z,16.00
2023-04-25T08:15:57.550Z,15.89
2023-04-25T08:16:54.559Z,15.87
2023-04-25T08:17:51.407Z,15.59
2023-04-25T08:18:48.302Z,15.75
2023-04-25T08:19:45.636Z,15.58
2023-04-25T08:20:42.651Z,15.81
2023-04-25T08:21:39.504Z,15.47
2023-04-25T08:22:36.615Z,15.65
2023-04-25T08:23:33.397Z,15.44
2023-04-25T08:24:30.291Z,15.05
2023-04-25T08:25:27.054Z,15.34
2023-04-25T08:26:23.768Z,15.24
2023-04-25T08:27:22.576Z,15.18
2023-04-25T08:28:19.360Z,14.84
2023-04-25T08:29:16.445Z,15.02
2023-04-25T08:30:13.559Z,14.70
2023-04-25T08:31:10.322Z,14.23
2023-04-25T08:32:07.358Z,14.07
2023-04-25T08:33:04.190Z,13.78
2023-04-25T08:34:01.034Z,13.68
2023-04-25T08:34:57.959Z,13.15
2023-04-25T08:35:54.771Z,13.49
2023-04-25T08:36:51.863Z,13.46
2023-04-25T08:37:50.182Z,13.54
2023-04-25T08:38:47.011Z,13.51
2023-04-25T08:39:43.710Z,13.44
2023-04-25T08:40:41.836Z,13.19
2023-04-25T08:41:38.886Z,13.45
2023-04-25T08:42:36.496Z,13.80
2023-04-25T08:43:33.716Z,13.88
2023-04-25T08:44:31.819Z,14.19
2023-04-25T08:45:30.641Z,14.27
2023-04-25T08:46:28.654Z,14.32
2023-04-25T08:47:28.094Z,14.24
2023-04-25T08:48:27.844Z,14.39
2023-04-25T08:49:26.709Z,14.45
2023-04-25T08:50:24.254Z,14.37
2023-04-25T08:51:26.440Z,14.54
2023-04-25T08:52:25.359Z,14.65
2023-04-25T08:53:30.841Z,14.83
2023-04-25T08:54:35.378Z,15.20
2023-04-25T08:55:34.572Z,15.22
2023-04-25T08:56:36.028Z,15.37
2023-04-25T08:57:35.170Z,15.62
2023-04-25T08:58:33.431Z,15.64
2023-04-25T08:59:31.820Z,15.61
2023-04-25T09:00:29.008Z,15.70
2023-04-25T09:01:26.805Z,15.33
2023-04-25T09:02:26.031Z,15.79
2023-04-25T09:03:23.312Z,15.14
2023-04-25T09:04:21.538Z,15.86
2023-04-25T09:05:21.592Z,15.60
2023-04-25T09:06:20.418Z,15.59
2023-04-25T09:07:19.748Z,15.80
2023-04-25T09:08:16.608Z,15.27
2023-04-25T09:09:13.479Z,15.87
2023-04-25T09:10:10.617Z,15.38
2023-04-25T09:11:08.634Z,15.84
2023-04-25T09:12:06.438Z,15.80
2023-04-25T09:13:07.049Z,15.97
2023-04-25T09:14:13.927Z,16.16
2023-04-25T09:15:29.315Z,16.28
2023-04-25T09:16:26.073Z,16.68
2023-04-25T09:17:24.585Z,16.55
2023-04-25T09:18:33.127Z,16.65
2023-04-25T09:19:39.600Z,16.75
2023-04-25T09:20:59.628Z,16.76
2023-04-25T09:21:59.505Z,16.87
2023-04-25T09:23:04.309Z,16.90
2023-04-25T09:24:01.566Z,16.99
2023-04-25T09:24:58.363Z,17.13
2023-04-25T09:25:55.226Z,17.08
2023-04-25T09:26:52.002Z,16.67
2023-04-25T09:27:53.544Z,17.29
2023-04-25T09:28:50.353Z,17.31
2023-04-25T09:29:47.447Z,17.17
2023-04-25T09:30:47.225Z,17.26
2023-04-25T09:31:44.049Z,17.58
2023-04-25T09:32:44.374Z,17.26
2023-04-25T09:33:42.149Z,17.14
2023-04-25T09:34:49.290Z,16.75
2023-04-25T09:35:46.590Z,16.51
2023-04-25T09:36:43.516Z,16.55
2023-04-25T09:37:42.581Z,16.90
2023-04-25T09:38:47.253Z,16.73
2023-04-25T09:39:46.120Z,16.63
2023-04-25T09:40:50.880Z,16.62
2023-04-25T09:41:47.736Z,16.67
2023-04-25T09:42:44.578Z,16.47
2023-04-25T09:43:46.116Z,16.74
2023-04-25T09:44:54.428Z,16.48
2023-04-25T09:45:54.720Z,16.33
2023-04-25T09:46:54.736Z,16.29
2023-04-25T09:47:56.389Z,16.31
2023-04-25T09:48:57.111Z,16.53
2023-04-25T09:49:57.612Z,16.71
2023-04-25T09:51:17.358Z,15.80
2023-04-25T09:52:17.377Z,16.63
2023-04-25T09:53:14.065Z,16.30
2023-04-25T09:54:11.296Z,16.72
2023-04-25T09:55:08.665Z,16.51
2023-04-25T09:56:07.868Z,17.03
2023-04-25T09:57:25.440Z,17.33
2023-04-25T09:58:25.549Z,17.83
2023-04-25T09:59:23.906Z,17.90
2023-04-25T10:00:22.826Z,18.13
2023-04-25T10:01:22.801Z,17.63
2023-04-25T10:02:22.373Z,17.86
2023-04-25T10:03:23.982Z,17.59
2023-04-25T10:04:27.338Z,17.89
2023-04-25T10:05:26.676Z,17.81
2023-04-25T10:06:28.238Z,17.60
2023-04-25T10:07:27.688Z,17.71
2023-04-25T10:08:27.826Z,17.61
2023-04-25T10:09:27.669Z,17.44
2023-04-25T10:10:29.615Z,17.23
2023-04-25T10:11:29.556Z,17.49
2023-04-25T10:12:27.601Z,17.33
2023-04-25T10:13:24.990Z,17.33
2023-04-25T10:14:23.359Z,17.43
2023-04-25T10:15:20.971Z,17.43
2023-04-25T10:16:18.927Z,17.74
2023-04-25T10:17:16.363Z,17.63
2023-04-25T10:18:13.781Z,17.40
2023-04-25T10:19:11.842Z,17.59
2023-04-25T10:20:11.957Z,18.04
2023-04-25T10:21:09.117Z,17.91
2023-04-25T10:22:32.029Z,18.47
2023-04-25T10:23:31.345Z,18.20
2023-04-25T10:24:28.334Z,17.92
2023-04-25T10:25:26.069Z,17.66
2023-04-25T10:26:23.189Z,16.98
2023-04-25T10:27:20.485Z,16.54
2023-04-25T10:28:17.283Z,16.22
2023-04-25T10:29:22.248Z,16.17
2023-04-25T10:30:19.524Z,15.96
2023-04-25T10:31:17.538Z,15.39
2023-04-25T10:32:14.560Z,15.61
2023-04-25T10:33:19.005Z,15.70
2023-04-25T10:34:18.242Z,15.30
2023-04-25T10:35:24.981Z,15.42
2023-04-25T10:36:23.794Z,15.45
2023-04-25T10:37:20.538Z,15.40
2023-04-25T10:38:17.400Z,15.51
2023-04-25T10:39:14.625Z,15.40
2023-04-25T10:40:12.479Z,15.48
2023-04-25T10:41:11.844Z,15.71
2023-04-25T10:42:09.163Z,15.90
2023-04-25T10:43:38.567Z,16.37
2023-04-25T10:44:37.821Z,16.36
2023-04-25T10:45:53.391Z,16.18
2023-04-25T10:46:50.245Z,15.97
2023-04-25T10:47:47.616Z,16.15
2023-04-25T10:48:50.384Z,16.70
2023-04-25T10:49:52.037Z,16.33
2023-04-25T10:50:49.074Z,16.07
2023-04-25T10:51:55.393Z,16.33
2023-04-25T10:52:52.688Z,16.39
2023-04-25T10:54:01.052Z,16.52
2023-04-25T10:54:59.645Z,16.52
2023-04-25T10:55:56.363Z,16.82
2023-04-25T10:56:54.308Z,16.86
2023-04-25T10:57:51.987Z,16.87
2023-04-25T10:58:51.400Z,17.05
2023-04-25T10:59:49.964Z,17.32
2023-04-25T11:00:56.704Z,17.26
2023-04-25T11:01:57.453Z,17.19
2023-04-25T11:03:00.196Z,17.20
2023-04-25T11:04:00.456Z,16.98
2023-04-25T11:04:58.188Z,16.87
2023-04-25T11:05:58.494Z,16.98
2023-04-25T11:07:10.688Z,16.92
2023-04-25T11:08:12.817Z,17.26
2023-04-25T11:09:16.716Z,16.43
2023-04-25T11:10:13.811Z,17.14
2023-04-25T11:11:11.089Z,16.96
2023-04-25T11:12:12.954Z,16.48
2023-04-25T11:13:10.005Z,16.72
2023-04-25T11:14:07.409Z,15.52
2023-04-25T11:15:06.380Z,16.66
2023-04-25T11:16:12.303Z,16.39
2023-04-25T11:17:11.677Z,16.53
2023-04-25T11:18:11.331Z,16.46
2023-04-25T11:19:08.217Z,16.41
2023-04-25T11:20:09.585Z,16.60
2023-04-25T11:21:07.347Z,16.50
2023-04-25T11:22:04.658Z,16.72
2023-04-25T11:23:58.656Z,16.74
2023-04-25T11:24:55.392Z,16.48
2023-04-25T11:25:53.709Z,16.64
2023-04-25T11:26:51.194Z,16.29
2023-04-25T11:27:55.456Z,16.69
2023-04-25T11:28:52.149Z,16.86
2023-04-25T11:29:49.125Z,16.72
2023-04-25T11:30:51.235Z,16.93
2023-04-25T11:31:47.964Z,16.97
2023-04-25T11:32:45.028Z,16.68
2023-04-25T11:33:41.949Z,16.31
2023-04-25T11:34:38.956Z,16.96
2023-04-25T11:35:35.826Z,16.48
2023-04-25T11:36:32.558Z,16.59
2023-04-25T11:37:29.740Z,16.68
2023-04-25T11:38:28.043Z,16.55
2023-04-25T11:39:27.588Z,16.08
2023-04-25T11:40:24.887Z,15.29
2023-04-25T11:41:23.210Z,15.96
2023-04-25T11:42:21.137Z,16.13
2023-04-25T11:43:21.466Z,16.06
2023-04-25T11:44:19.936Z,16.13
2023-04-25T11:45:17.076Z,16.09
2023-04-25T11:46:13.884Z,15.98
2023-04-25T11:47:10.735Z,16.17
2023-04-25T11:48:07.558Z,16.17
2023-04-25T11:49:06.001Z,16.05
2023-04-25T11:50:05.721Z,16.28
2023-04-25T11:51:02.480Z,16.31
2023-04-25T11:51:59.612Z,15.90
2023-04-25T11:52:58.082Z,16.34
2023-04-25T11:53:54.905Z,16.45
2023-04-25T11:54:51.625Z,16.59
2023-04-25T11:55:48.818Z,16.53
2023-04-25T11:56:46.553Z,17.05
2023-04-25T11:57:45.634Z,17.41
2023-04-25T11:58:58.411Z,17.47
2023-04-25T11:59:55.257Z,17.45
2023-04-25T12:00:52.067Z,17.70
2023-04-25T12:01:50.764Z,17.64
2023-04-25T12:02:53.165Z,17.37
2023-04-25T12:03:50.184Z,17.74
2023-04-25T12:04:47.479Z,17.77
2023-04-25T12:05:47.030Z,17.58
2023-04-25T12:06:49.810Z,17.94
2023-04-25T12:07:47.447Z,18.12
2023-04-25T12:09:04.906Z,17.27
2023-04-25T12:10:07.396Z,17.74
2023-04-25T12:11:04.598Z,17.59
2023-04-25T12:12:05.271Z,18.14
2023-04-25T12:13:25.377Z,17.81
2023-04-25T12:14:28.125Z,18.12
2023-04-25T12:15:26.446Z,18.20
2023-04-25T12:16:23.336Z,17.79
2023-04-25T12:17:20.226Z,17.56
2023-04-25T12:18:21.902Z,16.61
2023-04-25T12:19:20.338Z,16.27
2023-04-25T12:20:26.908Z,15.63
2023-04-25T12:21:23.658Z,15.05
2023-04-25T12:22:22.761Z,14.74
2023-04-25T12:23:27.315Z,14.51
2023-04-25T12:24:28.443Z,14.75
2023-04-25T12:25:48.222Z,14.10
2023-04-25T12:27:07.094Z,14.78
2023-04-25T12:28:11.464Z,14.98
2023-04-25T12:29:24.979Z,14.84
2023-04-25T12:30:24.686Z,14.34